sensor_id;sensor_type;location;lat;lon;timestamp;temperature;humidity
15821;DHT22;8011;51.650;7.240;2022-12-29T04:00:36;11.00;99.90
15821;DHT22;8011;51.650;7.240;2022-12-29T04:03:01;11.00;99.90
15821;DHT22;8011;51.650;7.240;2022-12-29T04:05:27;11.10;99.90
15821;DHT22;8011;51.650;7.240;2022-12-29T04:07:53;11.10;99.90
15821;DHT22;8011;51.650;7.240;2022-12-29T04:10:19;11.20;99.90
15821;DHT22;8011;51.650;7.240;2022-12-29T04:12:44;11.20;99.90
15821;DHT22;8011;51.650;7.240;2022-12-29T04:15:12;11.20;99.90
15821;DHT22;8011;51.650;7.240;2022-12-29T04:17:37;11.20;99.90
15821;DHT22;8011;51.650;7.240;2022-12-29T04:20:04;11.10;99.90
15821;DHT22;8011;51.650;7.240;2022-12-29T04:22:56;11.00;99.90
15821;DHT22;8011;51.650;7.240;2022-12-29T04:25:22;11.10;99.90
15821;DHT22;8011;51.650;7.240;2022-12-29T04:27:47;11.10;99.90
15821;DHT22;8011;51.650;7.240;2022-12-29T04:30:13;11.10;99.90
15821;DHT22;8011;51.650;7.240;2022-12-29T04:32:39;11.10;99.90
15821;DHT22;8011;51.650;7.240;2022-12-29T04:35:05;11.20;99.90
15821;DHT22;8011;51.650;7.240;2022-12-29T04:37:30;11.20;99.90
15821;DHT22;8011;51.650;7.240;2022-12-29T04:39:56;11.10;99.90
15821;DHT22;8011;51.650;7.240;2022-12-29T04:42:22;11.10;99.90
15821;DHT22;8011;51.650;7.240;2022-12-29T04:44:47;11.10;99.90
15821;DHT22;8011;51.650;7.240;2022-12-29T04:47:13;11.00;99.90
15821;DHT22;8011;51.650;7.240;2022-12-29T04:49:39;11.00;99.90
15821;DHT22;8011;51.650;7.240;2022-12-29T04:52:04;11.00;99.90
15821;DHT22;8011;51.650;7.240;2022-12-29T04:54:30;11.00;99.90
15821;DHT22;8011;51.650;7.240;2022-12-29T04:56:56;11.10;99.90
15821;DHT22;8011;51.650;7.240;2022-12-29T04:59:21;11.10;99.90
15821;DHT22;8011;51.650;7.240;2022-12-29T05:01:47;11.20;99.90
15821;DHT22;8011;51.650;7.240;2022-12-29T05:04:12;11.20;99.90
15821;DHT22;8011;51.650;7.240;2022-12-29T05:06:38;11.30;99.90
15821;DHT22;8011;51.650;7.240;2022-12-29T05:09:04;11.40;99.90
15821;DHT22;8011;51.650;7.240;2022-12-29T05:11:30;11.50;99.90
15821;DHT22;8011;51.650;7.240;2022-12-29T05:13:55;11.60;99.90
15821;DHT22;8011;51.650;7.240;2022-12-29T05:16:21;11.60;99.90
15821;DHT22;8011;51.650;7.240;2022-12-29T05:18:46;11.70;99.90
15821;DHT22;8011;51.650;7.240;2022-12-29T05:21:12;11.80;99.90
15821;DHT22;8011;51.650;7.240;2022-12-29T05:23:38;11.70;99.90
15821;DHT22;8011;51.650;7.240;2022-12-29T05:26:03;11.80;99.90
15821;DHT22;8011;51.650;7.240;2022-12-29T05:28:29;11.80;99.90
15821;DHT22;8011;51.650;7.240;2022-12-29T05:30:55;11.70;99.90
15821;DHT22;8011;51.650;7.240;2022-12-29T05:33:20;11.60;99.90
15821;DHT22;8011;51.650;7.240;2022-12-29T05:35:46;11.30;99.90
15821;DHT22;8011;51.650;7.240;2022-12-29T05:38:12;11.00;99.90
15821;DHT22;8011;51.650;7.240;2022-12-29T05:40:38;10.80;99.90
15821;DHT22;8011;51.650;7.240;2022-12-29T05:43:04;10.70;99.90
15821;DHT22;8011;51.650;7.240;2022-12-29T05:45:29;10.60;99.90
15821;DHT22;8011;51.650;7.240;2022-12-29T05:47:55;10.50;99.90
15821;DHT22;8011;51.650;7.240;2022-12-29T05:50:20;10.40;99.90
15821;DHT22;8011;51.650;7.240;2022-12-29T05:52:46;10.30;99.90
15821;DHT22;8011;51.650;7.240;2022-12-29T05:55:12;10.30;99.90
15821;DHT22;8011;51.650;7.240;2022-12-29T05:57:38;10.20;99.90
15821;DHT22;8011;51.650;7.240;2022-12-29T06:00:05;10.20;99.90
15821;DHT22;8011;51.650;7.240;2022-12-29T06:02:30;10.20;99.90
15821;DHT22;8011;51.650;7.240;2022-12-29T06:04:56;10.20;99.90
15821;DHT22;8011;51.650;7.240;2022-12-29T06:07:22;10.30;99.90
15821;DHT22;8011;51.650;7.240;2022-12-29T06:09:48;10.30;99.90
15821;DHT22;8011;51.650;7.240;2022-12-29T06:12:13;10.30;99.90
15821;DHT22;8011;51.650;7.240;2022-12-29T06:14:39;10.40;99.90
15821;DHT22;8011;51.650;7.240;2022-12-29T06:17:05;10.50;99.90
15821;DHT22;8011;51.650;7.240;2022-12-29T06:19:31;10.60;99.90
15821;DHT22;8011;51.650;7.240;2022-12-29T06:21:57;10.70;99.90
15821;DHT22;8011;51.650;7.240;2022-12-29T06:24:22;10.80;99.90
15821;DHT22;8011;51.650;7.240;2022-12-29T06:26:48;10.80;99.90
15821;DHT22;8011;51.650;7.240;2022-12-29T06:29:14;10.80;99.90
15821;DHT22;8011;51.650;7.240;2022-12-29T06:31:44;10.90;99.90
15821;DHT22;8011;51.650;7.240;2022-12-29T06:34:11;10.80;99.90
15821;DHT22;8011;51.650;7.240;2022-12-29T06:36:38;10.80;99.90
15821;DHT22;8011;51.650;7.240;2022-12-29T06:39:03;10.80;99.90
15821;DHT22;8011;51.650;7.240;2022-12-29T06:41:29;10.90;99.90
15821;DHT22;8011;51.650;7.240;2022-12-29T06:43:55;10.90;99.90
15821;DHT22;8011;51.650;7.240;2022-12-29T06:46:21;10.90;99.90
15821;DHT22;8011;51.650;7.240;2022-12-29T06:48:46;10.90;99.90
15821;DHT22;8011;51.650;7.240;2022-12-29T06:51:12;11.00;99.90
15821;DHT22;8011;51.650;7.240;2022-12-29T06:53:38;10.90;99.90
15821;DHT22;8011;51.650;7.240;2022-12-29T06:56:04;10.90;99.90
15821;DHT22;8011;51.650;7.240;2022-12-29T06:58:30;11.00;99.90
15821;DHT22;8011;51.650;7.240;2022-12-29T07:00:56;11.00;99.90
15821;DHT22;8011;51.650;7.240;2022-12-29T07:03:22;11.00;99.90
15821;DHT22;8011;51.650;7.240;2022-12-29T07:05:47;11.00;99.90
15821;DHT22;8011;51.650;7.240;2022-12-29T07:08:13;11.00;99.90
15821;DHT22;8011;51.650;7.240;2022-12-29T07:10:39;11.00;99.90
15821;DHT22;8011;51.650;7.240;2022-12-29T07:13:05;11.00;99.90
15821;DHT22;8011;51.650;7.240;2022-12-29T07:15:33;10.90;99.90
15821;DHT22;8011;51.650;7.240;2022-12-29T07:17:59;10.90;99.90
15821;DHT22;8011;51.650;7.240;2022-12-29T07:20:25;10.90;99.90
15821;DHT22;8011;51.650;7.240;2022-12-29T07:22:50;10.90;99.90
15821;DHT22;8011;51.650;7.240;2022-12-29T07:25:16;10.90;99.90
15821;DHT22;8011;51.650;7.240;2022-12-29T07:27:41;10.90;99.90
15821;DHT22;8011;51.650;7.240;2022-12-29T07:30:08;10.90;99.90
15821;DHT22;8011;51.650;7.240;2022-12-29T07:32:34;10.90;99.90
15821;DHT22;8011;51.650;7.240;2022-12-29T07:35:00;10.90;99.90
15821;DHT22;8011;51.650;7.240;2022-12-29T07:37:25;10.90;99.90
15821;DHT22;8011;51.650;7.240;2022-12-29T07:39:51;10.90;99.90
15821;DHT22;8011;51.650;7.240;2022-12-29T07:42:16;10.90;99.90
15821;DHT22;8011;51.650;7.240;2022-12-29T07:44:42;10.90;99.90
15821;DHT22;8011;51.650;7.240;2022-12-29T07:47:08;10.90;99.90
15821;DHT22;8011;51.650;7.240;2022-12-29T07:49:34;10.90;99.90
15821;DHT22;8011;51.650;7.240;2022-12-29T07:51:59;10.90;99.90
15821;DHT22;8011;51.650;7.240;2022-12-29T07:54:25;10.90;99.90
15821;DHT22;8011;51.650;7.240;2022-12-29T07:56:51;10.90;99.90
15821;DHT22;8011;51.650;7.240;2022-12-29T07:59:16;10.90;99.90
15821;DHT22;8011;51.650;7.240;2022-12-29T08:01:42;10.90;99.90
15821;DHT22;8011;51.650;7.240;2022-12-29T08:04:08;10.80;99.90
15821;DHT22;8011;51.650;7.240;2022-12-29T08:06:33;10.90;99.90
15821;DHT22;8011;51.650;7.240;2022-12-29T08:08:59;10.80;99.90
15821;DHT22;8011;51.650;7.240;2022-12-29T08:11:26;10.90;99.90
15821;DHT22;8011;51.650;7.240;2022-12-29T08:13:52;10.90;99.90
15821;DHT22;8011;51.650;7.240;2022-12-29T08:16:18;10.90;99.90
15821;DHT22;8011;51.650;7.240;2022-12-29T08:18:44;11.00;99.90
15821;DHT22;8011;51.650;7.240;2022-12-29T08:21:09;11.00;99.90
15821;DHT22;8011;51.650;7.240;2022-12-29T08:23:35;11.00;99.90
15821;DHT22;8011;51.650;7.240;2022-12-29T08:26:03;11.00;99.90
15821;DHT22;8011;51.650;7.240;2022-12-29T08:28:29;11.00;99.90
15821;DHT22;8011;51.650;7.240;2022-12-29T08:30:57;11.00;99.90
15821;DHT22;8011;51.650;7.240;2022-12-29T08:33:23;11.00;99.90
15821;DHT22;8011;51.650;7.240;2022-12-29T08:35:49;11.00;99.90
15821;DHT22;8011;51.650;7.240;2022-12-29T08:38:15;11.00;99.90
15821;DHT22;8011;51.650;7.240;2022-12-29T08:40:40;11.00;99.90
15821;DHT22;8011;51.650;7.240;2022-12-29T08:43:06;11.00;99.90
15821;DHT22;8011;51.650;7.240;2022-12-29T08:45:32;11.00;99.90
15821;DHT22;8011;51.650;7.240;2022-12-29T08:47:58;11.00;99.90
15821;DHT22;8011;51.650;7.240;2022-12-29T08:50:23;11.00;99.90
15821;DHT22;8011;51.650;7.240;2022-12-29T08:52:49;10.90;99.90
15821;DHT22;8011;51.650;7.240;2022-12-29T08:55:14;10.90;99.90
15821;DHT22;8011;51.650;7.240;2022-12-29T08:57:40;10.90;99.90
15821;DHT22;8011;51.650;7.240;2022-12-29T09:00:07;10.80;99.90
15821;DHT22;8011;51.650;7.240;2022-12-29T09:02:33;10.80;99.90
15821;DHT22;8011;51.650;7.240;2022-12-29T09:04:58;10.80;99.90
15821;DHT22;8011;51.650;7.240;2022-12-29T09:07:26;10.70;99.90
15821;DHT22;8011;51.650;7.240;2022-12-29T09:09:54;10.80;99.90
15821;DHT22;8011;51.650;7.240;2022-12-29T09:12:20;10.80;99.90
15821;DHT22;8011;51.650;7.240;2022-12-29T09:14:46;10.70;99.90
15821;DHT22;8011;51.650;7.240;2022-12-29T09:17:12;10.70;99.90
15821;DHT22;8011;51.650;7.240;2022-12-29T09:19:56;10.70;99.90
15821;DHT22;8011;51.650;7.240;2022-12-29T09:22:22;10.80;99.90
15821;DHT22;8011;51.650;7.240;2022-12-29T09:24:48;10.90;99.90
15821;DHT22;8011;51.650;7.240;2022-12-29T09:27:13;11.00;99.90
15821;DHT22;8011;51.650;7.240;2022-12-29T09:29:39;11.00;99.90
15821;DHT22;8011;51.650;7.240;2022-12-29T09:32:05;11.10;99.90
15821;DHT22;8011;51.650;7.240;2022-12-29T09:34:30;11.10;99.90
15821;DHT22;8011;51.650;7.240;2022-12-29T09:36:56;11.20;99.90
15821;DHT22;8011;51.650;7.240;2022-12-29T09:39:22;11.10;99.90
15821;DHT22;8011;51.650;7.240;2022-12-29T09:42:19;11.20;99.90
15821;DHT22;8011;51.650;7.240;2022-12-29T09:45:14;11.10;99.90
15821;DHT22;8011;51.650;7.240;2022-12-29T09:47:43;11.20;99.90
15821;DHT22;8011;51.650;7.240;2022-12-29T09:50:26;11.10;99.90
15821;DHT22;8011;51.650;7.240;2022-12-29T09:53:17;11.10;99.90
15821;DHT22;8011;51.650;7.240;2022-12-29T09:55:55;11.10;99.90
15821;DHT22;8011;51.650;7.240;2022-12-29T09:58:39;11.10;99.90
15821;DHT22;8011;51.650;7.240;2022-12-29T10:01:06;11.10;99.90
15821;DHT22;8011;51.650;7.240;2022-12-29T10:03:48;11.10;99.90
15821;DHT22;8011;51.650;7.240;2022-12-29T10:06:20;11.00;99.90
15821;DHT22;8011;51.650;7.240;2022-12-29T10:09:36;11.10;99.90
15821;DHT22;8011;51.650;7.240;2022-12-29T10:15:03;11.10;99.90
15821;DHT22;8011;51.650;7.240;2022-12-29T10:18:29;11.10;99.90
15821;DHT22;8011;51.650;7.240;2022-12-29T10:23:58;11.20;99.90
15821;DHT22;8011;51.650;7.240;2022-12-29T10:26:40;11.10;99.90
15821;DHT22;8011;51.650;7.240;2022-12-29T10:29:20;11.10;99.90
15821;DHT22;8011;51.650;7.240;2022-12-29T10:32:03;11.20;99.90
15821;DHT22;8011;51.650;7.240;2022-12-29T10:34:34;11.20;99.90
15821;DHT22;8011;51.650;7.240;2022-12-29T10:37:18;11.20;99.90
15821;DHT22;8011;51.650;7.240;2022-12-29T10:39:54;11.20;99.90
15821;DHT22;8011;51.650;7.240;2022-12-29T10:42:29;11.30;99.90
15821;DHT22;8011;51.650;7.240;2022-12-29T10:44:59;11.30;99.90
15821;DHT22;8011;51.650;7.240;2022-12-29T10:47:29;11.20;99.90
15821;DHT22;8011;51.650;7.240;2022-12-29T10:49:58;11.30;99.90
15821;DHT22;8011;51.650;7.240;2022-12-29T10:52:27;11.30;99.90
15821;DHT22;8011;51.650;7.240;2022-12-29T10:55:12;11.20;99.90
15821;DHT22;8011;51.650;7.240;2022-12-29T10:57:44;11.30;99.90
15821;DHT22;8011;51.650;7.240;2022-12-29T11:00:21;11.30;99.90
15821;DHT22;8011;51.650;7.240;2022-12-29T11:05:36;11.30;99.90
15821;DHT22;8011;51.650;7.240;2022-12-29T11:08:09;11.20;99.90
15821;DHT22;8011;51.650;7.240;2022-12-29T11:10:39;11.30;99.90
15821;DHT22;8011;51.650;7.240;2022-12-29T11:13:14;11.20;99.90
15821;DHT22;8011;51.650;7.240;2022-12-29T11:15:48;11.20;99.90
15821;DHT22;8011;51.650;7.240;2022-12-29T11:18:33;11.20;99.90
15821;DHT22;8011;51.650;7.240;2022-12-29T11:21:04;11.30;99.90
15821;DHT22;8011;51.650;7.240;2022-12-29T11:23:34;11.20;99.90
15821;DHT22;8011;51.650;7.240;2022-12-29T11:26:22;11.30;99.90
15821;DHT22;8011;51.650;7.240;2022-12-29T11:31:51;11.30;99.90
15821;DHT22;8011;51.650;7.240;2022-12-29T11:34:32;11.30;99.90
15821;DHT22;8011;51.650;7.240;2022-12-29T11:37:02;11.30;99.90
15821;DHT22;8011;51.650;7.240;2022-12-29T11:39:33;11.20;99.90
15821;DHT22;8011;51.650;7.240;2022-12-29T11:42:00;11.20;99.90
15821;DHT22;8011;51.650;7.240;2022-12-29T11:44:32;11.20;99.90
15821;DHT22;8011;51.650;7.240;2022-12-29T11:47:00;11.20;99.90
15821;DHT22;8011;51.650;7.240;2022-12-29T11:49:26;11.20;99.90
15821;DHT22;8011;51.650;7.240;2022-12-29T11:51:53;11.20;99.90
15821;DHT22;8011;51.650;7.240;2022-12-29T11:54:56;11.20;99.90
15821;DHT22;8011;51.650;7.240;2022-12-29T11:57:23;11.20;99.90
15821;DHT22;8011;51.650;7.240;2022-12-29T11:59:50;11.30;99.90
15821;DHT22;8011;51.650;7.240;2022-12-29T12:02:36;11.20;99.90
15821;DHT22;8011;51.650;7.240;2022-12-29T12:05:20;11.20;99.90
15821;DHT22;8011;51.650;7.240;2022-12-29T12:16:19;11.20;99.90
15821;DHT22;8011;51.650;7.240;2022-12-29T12:18:50;11.20;99.90
15821;DHT22;8011;51.650;7.240;2022-12-29T12:21:20;11.20;99.90
15821;DHT22;8011;51.650;7.240;2022-12-29T12:24:10;11.20;99.90
15821;DHT22;8011;51.650;7.240;2022-12-29T12:27:07;11.20;99.90
15821;DHT22;8011;51.650;7.240;2022-12-29T12:32:36;11.20;99.90
15821;DHT22;8011;51.650;7.240;2022-12-29T12:36:04;11.20;99.90
15821;DHT22;8011;51.650;7.240;2022-12-29T12:44:35;11.20;99.90
15821;DHT22;8011;51.650;7.240;2022-12-29T12:46:52;11.10;99.90
15821;DHT22;8011;51.650;7.240;2022-12-29T12:55:18;11.20;99.90
15821;DHT22;8011;51.650;7.240;2022-12-29T12:58:11;11.10;99.90
15821;DHT22;8011;51.650;7.240;2022-12-29T13:01:10;11.10;99.90
15821;DHT22;8011;51.650;7.240;2022-12-29T13:09:11;11.00;99.90
15821;DHT22;8011;51.650;7.240;2022-12-29T13:22:30;11.10;99.90
15821;DHT22;8011;51.650;7.240;2022-12-29T13:30:38;11.10;99.90
15821;DHT22;8011;51.650;7.240;2022-12-29T13:33:29;11.10;99.90
15821;DHT22;8011;51.650;7.240;2022-12-29T13:38:43;11.10;99.90
15821;DHT22;8011;51.650;7.240;2022-12-29T13:41:41;11.10;99.90
15821;DHT22;8011;51.650;7.240;2022-12-29T13:44:16;11.10;99.90
15821;DHT22;8011;51.650;7.240;2022-12-29T13:46:44;11.10;99.90
15821;DHT22;8011;51.650;7.240;2022-12-29T13:49:22;11.10;99.90
15821;DHT22;8011;51.650;7.240;2022-12-29T13:51:58;11.10;99.90
15821;DHT22;8011;51.650;7.240;2022-12-29T14:00:02;11.00;99.90
15821;DHT22;8011;51.650;7.240;2022-12-29T14:08:00;11.00;99.90
15821;DHT22;8011;51.650;7.240;2022-12-29T14:10:34;10.90;99.90
15821;DHT22;8011;51.650;7.240;2022-12-29T14:13:21;10.90;99.90
15821;DHT22;8011;51.650;7.240;2022-12-29T14:15:53;10.90;99.90
15821;DHT22;8011;51.650;7.240;2022-12-29T14:18:22;10.90;99.90
15821;DHT22;8011;51.650;7.240;2022-12-29T14:20:57;10.90;99.90
15821;DHT22;8011;51.650;7.240;2022-12-29T14:28:33;10.90;99.90
15821;DHT22;8011;51.650;7.240;2022-12-29T14:31:03;10.90;99.90
15821;DHT22;8011;51.650;7.240;2022-12-29T14:33:32;10.90;99.90
15821;DHT22;8011;51.650;7.240;2022-12-29T14:36:21;10.80;99.90
15821;DHT22;8011;51.650;7.240;2022-12-29T14:38:50;10.80;99.90
15821;DHT22;8011;51.650;7.240;2022-12-29T14:41:37;10.70;99.90
15821;DHT22;8011;51.650;7.240;2022-12-29T14:49:23;10.70;99.90
15821;DHT22;8011;51.650;7.240;2022-12-29T14:51:52;10.60;99.90
15821;DHT22;8011;51.650;7.240;2022-12-29T14:54:42;10.50;99.90
15821;DHT22;8011;51.650;7.240;2022-12-29T14:57:39;10.50;99.90
15821;DHT22;8011;51.650;7.240;2022-12-29T15:02:40;10.40;99.90
15821;DHT22;8011;51.650;7.240;2022-12-29T15:05:46;10.40;99.90
15821;DHT22;8011;51.650;7.240;2022-12-29T15:08:12;10.40;99.90
15821;DHT22;8011;51.650;7.240;2022-12-29T15:10:47;10.40;99.90
15821;DHT22;8011;51.650;7.240;2022-12-29T15:13:17;10.40;99.90
15821;DHT22;8011;51.650;7.240;2022-12-29T15:15:43;10.40;99.90
15821;DHT22;8011;51.650;7.240;2022-12-29T15:18:32;10.40;99.90
15821;DHT22;8011;51.650;7.240;2022-12-29T15:21:05;10.50;99.90
15821;DHT22;8011;51.650;7.240;2022-12-29T15:23:33;10.50;99.90
15821;DHT22;8011;51.650;7.240;2022-12-29T15:26:07;10.50;99.90
15821;DHT22;8011;51.650;7.240;2022-12-29T15:33:41;10.50;99.90
15821;DHT22;8011;51.650;7.240;2022-12-29T15:36:12;10.40;99.90
15821;DHT22;8011;51.650;7.240;2022-12-29T15:38:38;10.40;99.90
15821;DHT22;8011;51.650;7.240;2022-12-29T15:41:26;10.40;99.90
15821;DHT22;8011;51.650;7.240;2022-12-29T15:44:10;10.40;99.90
15821;DHT22;8011;51.650;7.240;2022-12-29T15:46:39;10.40;99.90
15821;DHT22;8011;51.650;7.240;2022-12-29T15:49:08;10.40;99.90
15821;DHT22;8011;51.650;7.240;2022-12-29T15:51:39;10.40;99.90
15821;DHT22;8011;51.650;7.240;2022-12-29T15:54:06;10.40;99.90
15821;DHT22;8011;51.650;7.240;2022-12-29T15:56:40;10.40;99.90
15821;DHT22;8011;51.650;7.240;2022-12-29T15:59:26;10.40;99.90
15821;DHT22;8011;51.650;7.240;2022-12-29T16:01:54;10.40;99.90
15821;DHT22;8011;51.650;7.240;2022-12-29T16:04:20;10.40;99.90
15821;DHT22;8011;51.650;7.240;2022-12-29T16:07:01;10.50;99.90
15821;DHT22;8011;51.650;7.240;2022-12-29T16:09:42;10.60;99.90
15821;DHT22;8011;51.650;7.240;2022-12-29T16:12:26;10.60;99.90
15821;DHT22;8011;51.650;7.240;2022-12-29T16:14:58;10.60;99.90
15821;DHT22;8011;51.650;7.240;2022-12-29T16:17:27;10.60;99.90
15821;DHT22;8011;51.650;7.240;2022-12-29T16:19:57;10.60;99.90
15821;DHT22;8011;51.650;7.240;2022-12-29T16:25:17;10.50;99.90
15821;DHT22;8011;51.650;7.240;2022-12-29T16:27:44;10.50;99.90
15821;DHT22;8011;51.650;7.240;2022-12-29T16:30:30;10.40;99.90
15821;DHT22;8011;51.650;7.240;2022-12-29T16:32:58;10.40;99.90
15821;DHT22;8011;51.650;7.240;2022-12-29T16:35:26;10.30;99.90
15821;DHT22;8011;51.650;7.240;2022-12-29T16:38:18;10.40;99.90
15821;DHT22;8011;51.650;7.240;2022-12-29T16:43:24;10.40;99.90
15821;DHT22;8011;51.650;7.240;2022-12-29T16:50:44;10.10;99.90
15821;DHT22;8011;51.650;7.240;2022-12-29T16:53:28;10.10;99.90
15821;DHT22;8011;51.650;7.240;2022-12-29T16:55:57;10.00;99.90
15821;DHT22;8011;51.650;7.240;2022-12-29T16:58:28;9.90;99.90
15821;DHT22;8011;51.650;7.240;2022-12-29T17:00:57;9.90;99.90
15821;DHT22;8011;51.650;7.240;2022-12-29T17:03:34;9.90;99.90
15821;DHT22;8011;51.650;7.240;2022-12-29T17:06:00;9.80;99.90
15821;DHT22;8011;51.650;7.240;2022-12-29T17:08:26;9.80;99.90
15821;DHT22;8011;51.650;7.240;2022-12-29T17:10:56;9.70;99.90
15821;DHT22;8011;51.650;7.240;2022-12-29T17:13:41;9.60;99.90
15821;DHT22;8011;51.650;7.240;2022-12-29T17:16:09;9.60;99.90
15821;DHT22;8011;51.650;7.240;2022-12-29T17:18:35;9.50;99.90
15821;DHT22;8011;51.650;7.240;2022-12-29T17:21:01;9.40;99.90
15821;DHT22;8011;51.650;7.240;2022-12-29T17:23:28;9.20;99.90
15821;DHT22;8011;51.650;7.240;2022-12-29T17:25:55;9.00;99.90
15821;DHT22;8011;51.650;7.240;2022-12-29T17:28:24;8.90;99.90
15821;DHT22;8011;51.650;7.240;2022-12-29T17:30:59;8.80;99.90
15821;DHT22;8011;51.650;7.240;2022-12-29T17:33:26;8.60;99.90
15821;DHT22;8011;51.650;7.240;2022-12-29T17:35:52;8.50;99.90
15821;DHT22;8011;51.650;7.240;2022-12-29T17:38:38;8.40;99.90
15821;DHT22;8011;51.650;7.240;2022-12-29T17:41:11;8.20;99.90
15821;DHT22;8011;51.650;7.240;2022-12-29T17:43:37;8.20;99.90
15821;DHT22;8011;51.650;7.240;2022-12-29T17:46:05;8.00;99.90
15821;DHT22;8011;51.650;7.240;2022-12-29T17:48:31;8.00;99.90
15821;DHT22;8011;51.650;7.240;2022-12-29T17:50:57;7.90;99.90
15821;DHT22;8011;51.650;7.240;2022-12-29T17:53:27;8.00;99.90
15821;DHT22;8011;51.650;7.240;2022-12-29T17:55:53;7.90;99.90
15821;DHT22;8011;51.650;7.240;2022-12-29T17:58:24;8.00;99.90
15821;DHT22;8011;51.650;7.240;2022-12-29T18:00:55;8.00;99.90
15821;DHT22;8011;51.650;7.240;2022-12-29T18:03:36;7.90;99.90
15821;DHT22;8011;51.650;7.240;2022-12-29T18:06:03;8.00;99.90
15821;DHT22;8011;51.650;7.240;2022-12-29T18:08:31;8.00;99.90
15821;DHT22;8011;51.650;7.240;2022-12-29T18:10:59;8.00;99.90
15821;DHT22;8011;51.650;7.240;2022-12-29T18:13:29;8.00;99.90
15821;DHT22;8011;51.650;7.240;2022-12-29T18:15:56;8.00;99.90
15821;DHT22;8011;51.650;7.240;2022-12-29T18:18:23;8.00;99.90
15821;DHT22;8011;51.650;7.240;2022-12-29T18:20:51;8.00;99.90
15821;DHT22;8011;51.650;7.240;2022-12-29T18:23:31;7.80;99.90
15821;DHT22;8011;51.650;7.240;2022-12-29T18:28:44;7.70;99.90
15821;DHT22;8011;51.650;7.240;2022-12-29T18:31:18;7.70;99.90
15821;DHT22;8011;51.650;7.240;2022-12-29T18:33:44;7.60;99.90
15821;DHT22;8011;51.650;7.240;2022-12-29T18:36:10;7.70;99.90
15821;DHT22;8011;51.650;7.240;2022-12-29T18:38:36;7.70;99.90
15821;DHT22;8011;51.650;7.240;2022-12-29T18:41:02;7.70;99.90
15821;DHT22;8011;51.650;7.240;2022-12-29T18:43:28;7.60;99.90
15821;DHT22;8011;51.650;7.240;2022-12-29T18:49:04;7.60;99.90
15821;DHT22;8011;51.650;7.240;2022-12-29T18:51:30;7.60;99.90
15821;DHT22;8011;51.650;7.240;2022-12-29T18:53:56;7.60;99.90
15821;DHT22;8011;51.650;7.240;2022-12-29T18:56:22;7.60;99.90
15821;DHT22;8011;51.650;7.240;2022-12-29T18:58:48;7.70;99.90
15821;DHT22;8011;51.650;7.240;2022-12-29T19:01:20;7.60;99.90
15821;DHT22;8011;51.650;7.240;2022-12-29T19:03:47;7.60;99.90
15821;DHT22;8011;51.650;7.240;2022-12-29T19:06:12;7.60;99.90
15821;DHT22;8011;51.650;7.240;2022-12-29T19:08:38;7.60;99.90
15821;DHT22;8011;51.650;7.240;2022-12-29T19:11:04;7.60;99.90
15821;DHT22;8011;51.650;7.240;2022-12-29T19:13:29;7.60;99.90
15821;DHT22;8011;51.650;7.240;2022-12-29T19:15:56;7.60;99.90
15821;DHT22;8011;51.650;7.240;2022-12-29T19:18:25;7.60;99.90
15821;DHT22;8011;51.650;7.240;2022-12-29T19:20:52;7.60;99.90
15821;DHT22;8011;51.650;7.240;2022-12-29T19:23:20;7.60;99.90
15821;DHT22;8011;51.650;7.240;2022-12-29T19:25:47;7.60;99.90
15821;DHT22;8011;51.650;7.240;2022-12-29T19:28:25;7.50;99.90
15821;DHT22;8011;51.650;7.240;2022-12-29T19:30:52;7.60;99.90
15821;DHT22;8011;51.650;7.240;2022-12-29T19:33:20;7.70;99.90
15821;DHT22;8011;51.650;7.240;2022-12-29T19:35:46;7.70;99.90
15821;DHT22;8011;51.650;7.240;2022-12-29T19:38:13;7.60;99.90
15821;DHT22;8011;51.650;7.240;2022-12-29T19:40:44;7.60;99.90
15821;DHT22;8011;51.650;7.240;2022-12-29T19:43:11;7.60;99.90
15821;DHT22;8011;51.650;7.240;2022-12-29T19:45:41;7.60;99.90
15821;DHT22;8011;51.650;7.240;2022-12-29T19:48:12;7.60;99.90
15821;DHT22;8011;51.650;7.240;2022-12-29T19:50:38;7.60;99.90
15821;DHT22;8011;51.650;7.240;2022-12-29T19:53:04;7.60;99.90
15821;DHT22;8011;51.650;7.240;2022-12-29T19:55:29;7.60;99.90
15821;DHT22;8011;51.650;7.240;2022-12-29T19:57:55;7.60;99.90
15821;DHT22;8011;51.650;7.240;2022-12-29T20:00:21;7.60;99.90
15821;DHT22;8011;51.650;7.240;2022-12-29T20:02:46;7.60;99.90
15821;DHT22;8011;51.650;7.240;2022-12-29T20:05:12;7.60;99.90
15821;DHT22;8011;51.650;7.240;2022-12-29T20:07:40;7.60;99.90
15821;DHT22;8011;51.650;7.240;2022-12-29T20:10:07;7.60;99.90
15821;DHT22;8011;51.650;7.240;2022-12-29T20:12:33;7.60;99.90
15821;DHT22;8011;51.650;7.240;2022-12-29T20:15:00;7.60;99.90
15821;DHT22;8011;51.650;7.240;2022-12-29T20:17:26;7.70;99.90
15821;DHT22;8011;51.650;7.240;2022-12-29T20:19:52;7.60;99.90
15821;DHT22;8011;51.650;7.240;2022-12-29T20:22:18;7.70;99.90
15821;DHT22;8011;51.650;7.240;2022-12-29T20:24:43;7.70;99.90
15821;DHT22;8011;51.650;7.240;2022-12-29T20:27:10;7.70;99.90
15821;DHT22;8011;51.650;7.240;2022-12-29T20:29:39;7.70;99.90
15821;DHT22;8011;51.650;7.240;2022-12-29T20:32:13;7.70;99.90
15821;DHT22;8011;51.650;7.240;2022-12-29T20:34:40;7.70;99.90
15821;DHT22;8011;51.650;7.240;2022-12-29T20:37:06;7.70;99.90
15821;DHT22;8011;51.650;7.240;2022-12-29T20:39:32;7.70;99.90
15821;DHT22;8011;51.650;7.240;2022-12-29T20:41:58;7.60;99.90
15821;DHT22;8011;51.650;7.240;2022-12-29T20:44:25;7.60;99.90
15821;DHT22;8011;51.650;7.240;2022-12-29T20:46:50;7.70;99.90
15821;DHT22;8011;51.650;7.240;2022-12-29T20:49:16;7.60;99.90
15821;DHT22;8011;51.650;7.240;2022-12-29T20:51:42;7.70;99.90
15821;DHT22;8011;51.650;7.240;2022-12-29T20:54:10;7.70;99.90
15821;DHT22;8011;51.650;7.240;2022-12-29T20:56:36;7.60;99.90
15821;DHT22;8011;51.650;7.240;2022-12-29T20:59:02;7.70;99.90
15821;DHT22;8011;51.650;7.240;2022-12-29T21:01:28;7.70;99.90
15821;DHT22;8011;51.650;7.240;2022-12-29T21:03:54;7.60;99.90
15821;DHT22;8011;51.650;7.240;2022-12-29T21:06:19;7.60;99.90
15821;DHT22;8011;51.650;7.240;2022-12-29T21:08:48;7.50;99.90
15821;DHT22;8011;51.650;7.240;2022-12-29T21:11:14;7.60;99.90
15821;DHT22;8011;51.650;7.240;2022-12-29T21:13:40;7.60;99.90
15821;DHT22;8011;51.650;7.240;2022-12-29T21:16:08;7.50;99.90
15821;DHT22;8011;51.650;7.240;2022-12-29T21:18:35;7.60;99.90
15821;DHT22;8011;51.650;7.240;2022-12-29T21:21:04;7.60;99.90
15821;DHT22;8011;51.650;7.240;2022-12-29T21:23:30;7.60;99.90
15821;DHT22;8011;51.650;7.240;2022-12-29T21:25:56;7.60;99.90
15821;DHT22;8011;51.650;7.240;2022-12-29T21:28:23;7.60;99.90
15821;DHT22;8011;51.650;7.240;2022-12-29T21:30:49;7.60;99.90
15821;DHT22;8011;51.650;7.240;2022-12-29T21:33:16;7.60;99.90
15821;DHT22;8011;51.650;7.240;2022-12-29T21:35:42;7.60;99.90
15821;DHT22;8011;51.650;7.240;2022-12-29T21:38:08;7.50;99.90
15821;DHT22;8011;51.650;7.240;2022-12-29T21:40:35;7.60;99.90
15821;DHT22;8011;51.650;7.240;2022-12-29T21:43:01;7.50;99.90
15821;DHT22;8011;51.650;7.240;2022-12-29T21:45:27;7.50;99.90
15821;DHT22;8011;51.650;7.240;2022-12-29T21:48:00;7.50;99.90
15821;DHT22;8011;51.650;7.240;2022-12-29T21:50:47;7.50;99.90
15821;DHT22;8011;51.650;7.240;2022-12-29T21:53:34;7.50;99.90